Weather at Meghauli Airport

Public forecast

Using degrees Celsius for public forecast. Weather courtesy of forecast.io.

Closest aviation weather report (METAR) to Meghauli Airport

Closest report is Tribhuvan International Airport, 60.5 nm (112.1 km) E. Retrieved 2020/09/25 04:20 UTC (16 minutes ago):

VNKT 250420Z 16004KT 9999 FEW010 SCT030 BKN250 24/21 Q1011 NOSIG

Closest aviation forecast (TAF) to Meghauli Airport

Closest forecast is Tribhuvan International Airport, 60.5 nm (112.1 km) E. Retrieved 2020-09-25 00:54 UTC (4 hours ago):

TAF TAF VNKT 242300Z 2500/2524 09005KT 6000 FEW010 SCT025 BKN100 PROB40 2500/2506 07007KT 5000 -RA FEW025CB OVC090 BECMG 2504/2505 12004KT 6000 FEW015 SCT025 BKN100 BECMG 2507/2509 25008KT 8000 FEW020 SCT025 BKN100 PROB40 2508/2514 VRB07KT 4000 -TSRA FEW025CB OVC090 BECMG 2514/2515 21003KT 6000 FEW015 SCT025 BKN100